METAR Data
IDs: Format: Raw Decoded Include TAF

Data at: 1519 UTC 21 Sep 2018

KASD 211453Z AUTO 07005KT 10SM CLR 30/24 A3007 RMK AO2 SLP181 T03000244 51007
KASD 211353Z AUTO 05004KT 10SM CLR 27/24 A3006 RMK AO2 SLP180 T02670239
KASD 211253Z AUTO 00000KT 10SM FEW023 25/23 A3006 RMK AO2 SLP179 T02500233
KASD 211229Z AUTO VRB04KT 10SM FEW004 FEW021 24/23 A3006 RMK AO2 T02440228
KASD 211153Z AUTO 36003KT 10SM FEW020 23/22 A3004 RMK AO2 SLP174 60005 70005 T02330222 10261 20233 53009
KASD 211053Z AUTO 01003KT 10SM CLR 23/22 A3002 RMK AO2 SLP167 T02330222
KASD 210953Z AUTO 00000KT 10SM CLR 24/23 A3002 RMK AO2 RAE14 SLP165 P0005 T02390228
KASD 210853Z AUTO 16008KT 8SM -RA FEW024 SCT033 BKN048 26/23 A3002 RMK AO2 RAB50 SLP165 P0000 60000 T02610228 55002
KASD 210753Z AUTO 00000KT 10SM FEW028 24/22 A3002 RMK AO2 SLP164 T02390222
KASD 210653Z AUTO 01003KT 10SM CLR 24/23 A3002 RMK AO2 SLP166 T02440228
KASD 210553Z AUTO 00000KT 10SM CLR 25/23 A3002 RMK AO2 SLP167 T02500233 10300 20250 403330228 50003
KASD 210453Z AUTO 00000KT 10SM CLR 26/24 A3003 RMK AO2 SLP168 T02610239
KASD 210353Z AUTO 00000KT 10SM FEW030 27/24 A3002 RMK AO2 SLP166 T02670239
KASD 210253Z AUTO 16003KT 10SM CLR 28/24 A3001 RMK AO2 SLP163 T02780239 53013
KASD 210153Z AUTO 00000KT 10SM CLR 28/24 A3000 RMK AO2 SLP159 T02830239
KASD 210053Z AUTO 00000KT 10SM SCT031 SCT038 SCT046 28/24 A2998 RMK AO2 SLP152 T02830244
KASD 202353Z AUTO 00000KT 10SM SCT033 SCT042 BKN120 30/23 A2998 RMK AO2 SLP151 T03000233 10333 20300 53004
KASD 202253Z AUTO 14007KT 10SM BKN035 OVC060 32/23 A2997 RMK AO2 SLP147 T03170233
KASD 202153Z AUTO 14009KT 10SM FEW035 32/23 A2996 RMK AO2 SLP145 T03220228
KASD 202053Z AUTO 17010KT 10SM FEW040 33/23 A2997 RMK AO2 SLP147 T03280228 56018
KASD 201953Z AUTO 13008KT 10SM SCT044 BKN060 32/22 A2998 RMK AO2 SLP151 T03220222
KASD 201853Z AUTO 10SM SCT047 33/21 A3000 RMK AO2 SLP157 T03280211
KASD 201753Z AUTO 19007KT 10SM FEW041 SCT055 SCT075 32/22 A3002 RMK AO2 SLP164 T03220222 10328 20228 58007
KASD 201653Z AUTO 07003KT 10SM FEW036 SCT043 SCT060 32/22 A3003 RMK AO2 SLP170 T03170217
KASD 201553Z AUTO 00000KT 10SM SCT032 31/23 A3004 RMK AO2 SLP173 T03110228
KASD 201453Z AUTO 06004KT 10SM CLR 30/24 A3004 RMK AO2 SLP172 T03000244 53015
KASD 201353Z AUTO 00000KT 10SM SCT014 28/24 A3002 RMK AO2 SLP167 T02830244
KASD 201253Z AUTO 00000KT 5SM BR CLR 25/23 A3001 RMK AO2 SLP160 T02500233
KASD 201153Z AUTO 00000KT 6SM BR CLR 23/22 A2999 RMK AO2 SLP156 T02280217 10250 20228 53010
KASD 201053Z AUTO 02003KT 5SM BR CLR 23/22 A2998 RMK AO2 SLP152 T02280217
KASD 200953Z AUTO 00000KT 6SM BR CLR 24/22 A2997 RMK AO2 SLP147 T02390222
KASD 200853Z AUTO 00000KT 3SM BR SCT002 24/23 A2996 RMK AO2 SLP146 T02390228 53000
KASD 200849Z AUTO 00000KT 2 1/2SM BR SCT002 24/23 A2996 RMK AO2
KASD 200845Z AUTO 36003KT 1 1/2SM BR BKN002 24/23 A2997 RMK AO2 T02390233
KASD 200838Z AUTO 34003KT 2SM BR BKN001 24/23 A2997 RMK AO2 T02390228
KASD 200835Z AUTO 32004KT 4SM BR SCT001 24/23 A2997 RMK AO2 T02390228
KASD 200753Z AUTO 00000KT 10SM CLR 24/22 A2996 RMK AO2 SLP145 T02390222
KASD 200712Z AUTO 00000KT 8SM SCT002 24/22 A2996 RMK AO2 T02390222
KASD 200653Z AUTO 02003KT 10SM CLR 24/22 A2996 RMK AO2 SLP143 T02440222
KASD 200553Z AUTO 00000KT 10SM CLR 25/23 A2996 RMK AO2 SLP146 T02500228 10294 20250 403560228 58000
KASD 200453Z AUTO 00000KT 10SM CLR 26/23 A2997 RMK AO2 SLP147 T02560233
KASD 200353Z AUTO 00000KT 10SM CLR 26/24 A2997 RMK AO2 SLP147 T02560239